Time;durP1;ratioP1;P1;durP2;ratioP2;P2;SDS_P1;SDS_P2;PMS_P1;PMS_P2;Temp;Humidity;BMP_temperature;BMP_pressure;BME280_temperature;BME280_humidity;BME280_pressure;Samples;Min_cycle;Max_cycle;Signal;HPM_P1;HPM_P2
2023/05/10 00:00:39;;;;;;;4.90;1.60;;;;;;;;;;5037467;28;20041;-76
2023/05/10 00:03:04;;;;;;;3.45;1.52;;;;;;;;;;5055084;28;20059;-75
2023/05/10 00:05:30;;;;;;;2.03;1.60;;;;;;;;;;5056127;28;20056;-77
2023/05/10 00:07:55;;;;;;;4.35;1.48;;;;;;;;;;5056653;28;20048;-76
2023/05/10 00:10:20;;;;;;;2.13;1.40;;;;;;;;;;5056493;28;20448;-76
2023/05/10 00:12:45;;;;;;;3.05;1.52;;;;;;;;;;5037760;28;20082;-76
2023/05/10 00:15:11;;;;;;;7.22;1.70;;;;;;;;;;5037381;28;20059;-76
2023/05/10 00:17:36;;;;;;;3.45;1.50;;;;;;;;;;5054997;28;20419;-76
2023/05/10 00:20:01;;;;;;;2.63;1.50;;;;;;;;;;5055061;28;20060;-77
2023/05/10 00:22:26;;;;;;;2.90;1.83;;;;;;;;;;5036950;28;20265;-76
2023/05/10 00:24:52;;;;;;;1.95;1.40;;;;;;;;;;5036875;28;20025;-77
2023/05/10 00:27:17;;;;;;;3.63;1.42;;;;;;;;;;5055039;28;20055;-77
2023/05/10 00:29:42;;;;;;;2.87;1.40;;;;;;;;;;5054666;28;20024;-77
2023/05/10 00:32:07;;;;;;;2.45;1.45;;;;;;;;;;5054902;28;20265;-77
2023/05/10 00:34:33;;;;;;;3.37;1.40;;;;;;;;;;5036816;28;20108;-76
2023/05/10 00:36:58;;;;;;;2.20;1.30;;;;;;;;;;5054537;28;20345;-76
2023/05/10 00:39:23;;;;;;;2.00;1.30;;;;;;;;;;5054435;28;20286;-77
2023/05/10 00:41:48;;;;;;;2.05;1.13;;;;;;;;;;5039985;28;20025;-78
2023/05/10 00:44:14;;;;;;;2.45;1.35;;;;;;;;;;5058367;28;20025;-76
2023/05/10 00:46:39;;;;;;;3.30;1.60;;;;;;;;;;5038901;28;20391;-77
2023/05/10 00:49:06;;;;;;;2.55;1.48;;;;;;;;;;5056958;28;20025;-77
2023/05/10 00:51:31;;;;;;;2.15;1.30;;;;;;;;;;5055228;28;20029;-77
2023/05/10 00:53:57;;;;;;;2.28;1.20;;;;;;;;;;5036714;28;20090;-76
2023/05/10 00:56:23;;;;;;;1.95;1.35;;;;;;;;;;5054551;28;20025;-77
2023/05/10 00:58:48;;;;;;;3.20;1.60;;;;;;;;;;5053996;28;20033;-77
2023/05/10 01:01:14;;;;;;;2.92;1.48;;;;;;;;;;5036292;28;20380;-77
2023/05/10 01:03:39;;;;;;;2.88;1.40;;;;;;;;;;5054083;28;20032;-77
2023/05/10 01:06:05;;;;;;;2.08;1.60;;;;;;;;;;5054073;28;20082;-76
2023/05/10 01:08:30;;;;;;;2.53;1.50;;;;;;;;;;5036099;28;20021;-75
2023/05/10 01:10:56;;;;;;;2.35;1.30;;;;;;;;;;5055432;28;20035;-75
2023/05/10 01:13:39;;;;;;;5.68;1.38;;;;;;;;;;5055688;28;20376;-77
2023/05/10 01:16:06;;;;;;;3.33;1.25;;;;;;;;;;5055577;28;20502;-75
2023/05/10 01:18:34;;;;;;;4.28;1.45;;;;;;;;;;5053603;28;20380;-77
2023/05/10 01:21:21;;;;;;;2.75;1.60;;;;;;;;;;5054068;28;20067;-77
2023/05/10 01:24:12;;;;;;;1.95;1.25;;;;;;;;;;5053885;28;20017;-77
2023/05/10 01:26:40;;;;;;;3.40;1.58;;;;;;;;;;5053724;28;20021;-77
2023/05/10 01:29:23;;;;;;;1.67;1.15;;;;;;;;;;5035746;28;20169;-77
2023/05/10 01:32:07;;;;;;;2.92;1.45;;;;;;;;;;5053603;28;20396;-77
2023/05/10 01:34:35;;;;;;;2.00;1.40;;;;;;;;;;5053844;28;20033;-76
2023/05/10 01:37:19;;;;;;;3.80;1.88;;;;;;;;;;5035550;28;20021;-77
2023/05/10 01:40:02;;;;;;;1.55;1.25;;;;;;;;;;5053561;28;20099;-77
2023/05/10 01:42:45;;;;;;;1.77;1.30;;;;;;;;;;5053999;28;20048;-76
2023/05/10 01:45:25;;;;;;;1.58;1.20;;;;;;;;;;5053426;28;20048;-77
2023/05/10 01:47:58;;;;;;;5.90;1.17;;;;;;;;;;5053287;28;20564;-76
2023/05/10 01:50:29;;;;;;;2.70;1.58;;;;;;;;;;5053566;28;20021;-76
2023/05/10 01:52:56;;;;;;;3.53;1.23;;;;;;;;;;5053390;28;20031;-76
2023/05/10 01:55:25;;;;;;;2.95;1.50;;;;;;;;;;5053292;28;20029;-77
2023/05/10 01:57:55;;;;;;;5.50;1.55;;;;;;;;;;5035239;28;20070;-77
2023/05/10 02:00:21;;;;;;;2.70;1.38;;;;;;;;;;5052986;28;20563;-77
2023/05/10 02:02:49;;;;;;;2.40;1.40;;;;;;;;;;5053238;28;20029;-76
2023/05/10 02:05:15;;;;;;;2.72;1.60;;;;;;;;;;5053013;28;20097;-76
2023/05/10 02:07:42;;;;;;;4.95;1.45;;;;;;;;;;5052932;28;20039;-77
2023/05/10 02:10:09;;;;;;;4.15;1.30;;;;;;;;;;5035093;28;20021;-77
2023/05/10 02:12:36;;;;;;;2.78;1.45;;;;;;;;;;5053034;28;20037;-76
2023/05/10 02:15:04;;;;;;;3.08;1.40;;;;;;;;;;5053345;28;20036;-77
2023/05/10 02:17:31;;;;;;;3.90;1.50;;;;;;;;;;5052762;28;20075;-77
2023/05/10 02:19:58;;;;;;;7.15;1.60;;;;;;;;;;5034925;28;20032;-77
2023/05/10 02:22:25;;;;;;;4.65;1.63;;;;;;;;;;5052793;28;20060;-77
2023/05/10 02:24:50;;;;;;;2.65;1.13;;;;;;;;;;5052877;28;20033;-77
2023/05/10 02:27:17;;;;;;;2.90;1.55;;;;;;;;;;5055071;28;20043;-77
2023/05/10 02:29:43;;;;;;;2.20;1.30;;;;;;;;;;5056722;28;20036;-77
2023/05/10 02:32:10;;;;;;;1.73;1.40;;;;;;;;;;5056885;28;20029;-77
2023/05/10 02:34:36;;;;;;;2.78;1.52;;;;;;;;;;5056781;28;20100;-77
2023/05/10 02:37:02;;;;;;;5.50;1.40;;;;;;;;;;5057255;28;20128;-76
2023/05/10 02:39:29;;;;;;;4.68;1.40;;;;;;;;;;5056991;28;20106;-77
2023/05/10 02:41:56;;;;;;;1.70;1.30;;;;;;;;;;5057214;28;20476;-75
2023/05/10 02:44:22;;;;;;;2.92;1.15;;;;;;;;;;5039053;28;20396;-76
2023/05/10 02:46:47;;;;;;;1.92;1.52;;;;;;;;;;5057039;28;20055;-77
2023/05/10 02:49:13;;;;;;;4.05;1.40;;;;;;;;;;5056667;28;20021;-76
2023/05/10 02:51:44;;;;;;;2.92;1.40;;;;;;;;;;5057067;28;20545;-76
2023/05/10 02:54:19;;;;;;;4.00;1.30;;;;;;;;;;5056679;28;20021;-76
2023/05/10 02:56:51;;;;;;;3.97;1.50;;;;;;;;;;5056959;28;20024;-76
2023/05/10 02:59:16;;;;;;;2.63;1.50;;;;;;;;;;5056552;28;20044;-76
2023/05/10 03:01:41;;;;;;;2.10;1.55;;;;;;;;;;5038587;28;20021;-77
2023/05/10 03:04:07;;;;;;;4.03;1.52;;;;;;;;;;5038847;28;20073;-74
2023/05/10 03:06:32;;;;;;;1.95;1.30;;;;;;;;;;5056365;28;20036;-76
2023/05/10 03:08:58;;;;;;;1.85;1.45;;;;;;;;;;5056240;28;20070;-76
2023/05/10 03:11:42;;;;;;;2.30;1.30;;;;;;;;;;5056126;28;20017;-77
2023/05/10 03:14:21;;;;;;;1.33;1.17;;;;;;;;;;5056148;28;20024;-77
2023/05/10 03:16:55;;;;;;;1.10;0.93;;;;;;;;;;5056602;28;20029;-78
2023/05/10 03:19:29;;;;;;;1.63;1.30;;;;;;;;;;5038373;28;20017;-77
2023/05/10 03:21:59;;;;;;;1.75;1.40;;;;;;;;;;5056715;28;20045;-77
2023/05/10 03:24:27;;;;;;;1.55;1.13;;;;;;;;;;5038463;28;20028;-77
2023/05/10 03:26:59;;;;;;;3.50;1.48;;;;;;;;;;5056358;28;20059;-77
2023/05/10 03:29:26;;;;;;;2.10;1.42;;;;;;;;;;5057207;28;20545;-77
2023/05/10 03:31:51;;;;;;;2.90;1.48;;;;;;;;;;5056408;28;20059;-78
2023/05/10 03:34:17;;;;;;;1.83;1.35;;;;;;;;;;5056127;28;20056;-77
2023/05/10 03:36:42;;;;;;;2.05;1.50;;;;;;;;;;5057859;28;20111;-77
2023/05/10 03:39:07;;;;;;;2.63;1.40;;;;;;;;;;5056266;28;20059;-76
2023/05/10 03:41:32;;;;;;;4.50;1.20;;;;;;;;;;5037769;28;20025;-76
2023/05/10 03:43:58;;;;;;;2.10;1.43;;;;;;;;;;5056490;28;20262;-77
2023/05/10 03:46:23;;;;;;;2.60;1.47;;;;;;;;;;5037764;28;20266;-77
2023/05/10 03:48:48;;;;;;;3.33;1.30;;;;;;;;;;5055499;28;20258;-77
2023/05/10 03:51:13;;;;;;;2.73;1.40;;;;;;;;;;5055542;28;20324;-77
2023/05/10 03:53:38;;;;;;;1.87;1.40;;;;;;;;;;5055663;28;20266;-76
2023/05/10 03:56:04;;;;;;;2.57;1.63;;;;;;;;;;5055823;28;20279;-77
2023/05/10 03:58:29;;;;;;;1.92;1.50;;;;;;;;;;5037498;28;20254;-77
2023/05/10 04:00:55;;;;;;;1.85;1.50;;;;;;;;;;5055345;28;20052;-77
2023/05/10 04:03:20;;;;;;;1.70;1.33;;;;;;;;;;5037397;28;20028;-77
2023/05/10 04:05:45;;;;;;;1.50;1.13;;;;;;;;;;5055266;28;20029;-76
2023/05/10 04:08:10;;;;;;;3.53;1.37;;;;;;;;;;5055348;28;20116;-77
2023/05/10 04:10:36;;;;;;;1.23;1.10;;;;;;;;;;5055488;28;20265;-76
2023/05/10 04:13:01;;;;;;;2.40;1.40;;;;;;;;;;5055614;28;20268;-76
2023/05/10 04:15:26;;;;;;;1.70;1.23;;;;;;;;;;5055485;28;20025;-76
2023/05/10 04:17:51;;;;;;;2.83;1.33;;;;;;;;;;5055518;28;20250;-77
2023/05/10 04:20:17;;;;;;;6.88;1.45;;;;;;;;;;5056926;28;20385;-77
2023/05/10 04:22:42;;;;;;;2.78;1.40;;;;;;;;;;5055909;28;20025;-76
2023/05/10 04:25:08;;;;;;;3.05;1.55;;;;;;;;;;5055192;28;20028;-77
2023/05/10 04:27:33;;;;;;;3.83;1.42;;;;;;;;;;5055091;28;20400;-76
2023/05/10 04:29:58;;;;;;;2.25;1.30;;;;;;;;;;5054864;28;20535;-76
2023/05/10 04:32:24;;;;;;;2.40;1.40;;;;;;;;;;5054844;28;20033;-77
2023/05/10 04:34:50;;;;;;;1.83;1.40;;;;;;;;;;5054964;28;20542;-76
2023/05/10 04:37:15;;;;;;;4.28;1.35;;;;;;;;;;5054764;28;20025;-76
2023/05/10 04:39:41;;;;;;;3.35;1.63;;;;;;;;;;5036724;28;20403;-77
2023/05/10 04:42:07;;;;;;;7.68;1.23;;;;;;;;;;5054596;28;20017;-77
2023/05/10 04:44:32;;;;;;;2.42;1.35;;;;;;;;;;5054688;28;20110;-77
2023/05/10 04:46:58;;;;;;;3.38;1.60;;;;;;;;;;5054622;28;20021;-77
2023/05/10 04:49:23;;;;;;;2.33;1.40;;;;;;;;;;5053654;28;20480;-77
2023/05/10 04:51:49;;;;;;;3.17;1.47;;;;;;;;;;5054545;28;20037;-77
2023/05/10 04:54:14;;;;;;;3.10;1.30;;;;;;;;;;5054739;28;20269;-76
2023/05/10 04:56:40;;;;;;;1.90;1.30;;;;;;;;;;5036432;28;20561;-76
2023/05/10 04:59:06;;;;;;;4.28;1.50;;;;;;;;;;5036409;28;20480;-77
2023/05/10 05:01:31;;;;;;;3.35;1.40;;;;;;;;;;5036636;28;20044;-77
2023/05/10 05:03:56;;;;;;;2.65;1.40;;;;;;;;;;5036745;28;20023;-76
2023/05/10 05:06:21;;;;;;;6.55;1.30;;;;;;;;;;5054380;28;20506;-77
2023/05/10 05:08:48;;;;;;;4.03;1.50;;;;;;;;;;5037432;28;20029;-77
2023/05/10 05:11:14;;;;;;;4.55;1.33;;;;;;;;;;5055446;28;20021;-77
2023/05/10 05:13:39;;;;;;;2.27;1.30;;;;;;;;;;5055400;28;20025;-77
2023/05/10 05:16:05;;;;;;;3.63;1.33;;;;;;;;;;5055689;28;20261;-77
2023/05/10 05:18:30;;;;;;;2.38;1.33;;;;;;;;;;5055493;28;20272;-77
2023/05/10 05:20:55;;;;;;;2.00;1.03;;;;;;;;;;5055422;28;20032;-77
2023/05/10 05:23:24;;;;;;;4.68;1.55;;;;;;;;;;5055761;28;20266;-77
2023/05/10 05:25:49;;;;;;;2.17;1.25;;;;;;;;;;5037749;28;20021;-77
2023/05/10 05:28:14;;;;;;;2.63;1.87;;;;;;;;;;5037440;28;20223;-77
2023/05/10 05:30:40;;;;;;;9.07;1.60;;;;;;;;;;5036876;28;20297;-76
2023/05/10 05:33:05;;;;;;;2.80;1.40;;;;;;;;;;5054094;28;20262;-75
2023/05/10 05:35:30;;;;;;;2.70;1.40;;;;;;;;;;5054393;28;20254;-77
2023/05/10 05:37:56;;;;;;;2.37;1.50;;;;;;;;;;5054551;28;20044;-76
2023/05/10 05:40:21;;;;;;;2.25;1.60;;;;;;;;;;5053325;28;20780;-77
2023/05/10 05:42:46;;;;;;;2.30;1.65;;;;;;;;;;5053681;28;20036;-76
2023/05/10 05:45:12;;;;;;;4.75;1.52;;;;;;;;;;5035858;28;20029;-77
2023/05/10 05:47:38;;;;;;;1.83;1.23;;;;;;;;;;5053742;28;20395;-76
2023/05/10 05:50:05;;;;;;;3.05;1.30;;;;;;;;;;5054187;28;20024;-78
2023/05/10 05:52:30;;;;;;;3.40;1.58;;;;;;;;;;5055663;28;20025;-74
2023/05/10 05:54:56;;;;;;;3.88;1.35;;;;;;;;;;5036838;28;20033;-75
2023/05/10 05:57:21;;;;;;;4.07;1.60;;;;;;;;;;5055503;28;20052;-76
2023/05/10 05:59:47;;;;;;;1.55;1.23;;;;;;;;;;5055975;28;20278;-80
2023/05/10 06:02:12;;;;;;;2.83;1.25;;;;;;;;;;5056652;28;20025;-76
2023/05/10 06:04:37;;;;;;;2.42;1.20;;;;;;;;;;5055663;28;20468;-75
2023/05/10 06:07:03;;;;;;;3.00;1.67;;;;;;;;;;5055057;28;20049;-76
2023/05/10 06:09:28;;;;;;;3.00;1.50;;;;;;;;;;5055055;28;20265;-77
2023/05/10 06:11:53;;;;;;;4.63;1.50;;;;;;;;;;5037214;28;20082;-76
2023/05/10 06:14:20;;;;;;;1.93;1.40;;;;;;;;;;5055917;28;20025;-76
2023/05/10 06:16:45;;;;;;;1.80;1.45;;;;;;;;;;5054920;28;20751;-75
2023/05/10 06:19:11;;;;;;;1.90;1.37;;;;;;;;;;5053940;28;20036;-75
2023/05/10 06:21:36;;;;;;;2.17;1.30;;;;;;;;;;5035749;28;20261;-76
2023/05/10 06:24:02;;;;;;;4.80;1.40;;;;;;;;;;5036000;28;20074;-75
2023/05/10 06:26:27;;;;;;;4.07;1.70;;;;;;;;;;5053475;28;20808;-76
2023/05/10 06:28:52;;;;;;;5.20;1.60;;;;;;;;;;5054734;28;20052;-76
2023/05/10 06:31:18;;;;;;;2.30;1.23;;;;;;;;;;5036687;28;20074;-76
2023/05/10 06:33:43;;;;;;;1.92;1.42;;;;;;;;;;5054458;28;20262;-76
2023/05/10 06:36:08;;;;;;;4.23;1.40;;;;;;;;;;5036406;28;20071;-76
2023/05/10 06:38:34;;;;;;;4.07;1.55;;;;;;;;;;5037917;28;20266;-77
2023/05/10 06:40:59;;;;;;;3.75;1.60;;;;;;;;;;5041050;28;20097;-78
2023/05/10 06:43:26;;;;;;;2.88;1.63;;;;;;;;;;5059766;28;20021;-78
2023/05/10 06:45:51;;;;;;;5.65;1.50;;;;;;;;;;5058924;28;20028;-77
2023/05/10 06:48:16;;;;;;;5.70;1.50;;;;;;;;;;5040686;28;20021;-77
2023/05/10 06:50:42;;;;;;;2.10;1.40;;;;;;;;;;5045217;28;20055;-78
2023/05/10 06:53:07;;;;;;;6.57;1.70;;;;;;;;;;5044246;28;20060;-79
2023/05/10 06:55:32;;;;;;;3.07;1.57;;;;;;;;;;5042813;28;20281;-78
2023/05/10 06:57:57;;;;;;;3.78;1.40;;;;;;;;;;5061721;28;20254;-78
2023/05/10 07:00:23;;;;;;;2.75;1.48;;;;;;;;;;5061010;28;20088;-78
2023/05/10 07:02:48;;;;;;;3.40;1.40;;;;;;;;;;5057343;28;20021;-78
2023/05/10 07:05:14;;;;;;;8.02;2.05;;;;;;;;;;5041224;28;20104;-78
2023/05/10 07:07:39;;;;;;;2.58;1.30;;;;;;;;;;5061372;28;20033;-77
2023/05/10 07:10:05;;;;;;;3.80;1.60;;;;;;;;;;5037665;28;20021;-78
2023/05/10 07:12:30;;;;;;;4.43;1.75;;;;;;;;;;5043426;28;20547;-78
2023/05/10 07:14:55;;;;;;;5.60;1.90;;;;;;;;;;5048448;28;20021;-78
2023/05/10 07:17:21;;;;;;;4.78;1.63;;;;;;;;;;5062144;28;20040;-78
2023/05/10 07:19:46;;;;;;;2.60;1.50;;;;;;;;;;5060304;28;20526;-76
2023/05/10 07:22:11;;;;;;;3.83;1.90;;;;;;;;;;5044545;28;20021;-77
2023/05/10 07:24:36;;;;;;;3.10;1.60;;;;;;;;;;5064216;28;20025;-78
2023/05/10 07:27:02;;;;;;;1.85;1.35;;;;;;;;;;5062110;28;20337;-77
2023/05/10 07:29:28;;;;;;;3.60;1.58;;;;;;;;;;5060479;28;20024;-78
2023/05/10 07:31:53;;;;;;;3.65;1.50;;;;;;;;;;5063809;28;20052;-77
2023/05/10 07:34:18;;;;;;;4.05;1.80;;;;;;;;;;5061532;28;20369;-78
2023/05/10 07:36:44;;;;;;;2.50;1.43;;;;;;;;;;5058452;28;20017;-78
2023/05/10 07:39:09;;;;;;;3.43;1.80;;;;;;;;;;5062435;28;20284;-77
2023/05/10 07:41:34;;;;;;;4.67;1.67;;;;;;;;;;5061553;28;20340;-79
2023/05/10 07:43:59;;;;;;;7.00;1.70;;;;;;;;;;5059066;28;20294;-79
2023/05/10 07:46:25;;;;;;;3.40;1.60;;;;;;;;;;5066242;28;20033;-78
2023/05/10 07:48:50;;;;;;;3.05;1.77;;;;;;;;;;5066028;28;20029;-78
2023/05/10 07:51:15;;;;;;;2.35;1.60;;;;;;;;;;5061818;28;20036;-77
2023/05/10 07:53:41;;;;;;;3.83;1.80;;;;;;;;;;5065155;28;20029;-77
2023/05/10 07:56:29;;;;;;;2.85;1.80;;;;;;;;;;5066556;28;20024;-78
2023/05/10 07:58:55;;;;;;;6.75;2.00;;;;;;;;;;5048747;28;20031;-78
2023/05/10 08:01:20;;;;;;;2.83;1.88;;;;;;;;;;5064671;28;20553;-78
2023/05/10 08:03:45;;;;;;;2.90;1.87;;;;;;;;;;5059914;28;20033;-77
2023/05/10 08:06:11;;;;;;;5.05;2.00;;;;;;;;;;5059375;28;20269;-77
2023/05/10 08:08:36;;;;;;;5.85;1.60;;;;;;;;;;5058816;28;20369;-78
2023/05/10 08:11:01;;;;;;;6.80;2.15;;;;;;;;;;5059607;28;20067;-79
2023/05/10 08:13:27;;;;;;;3.70;1.80;;;;;;;;;;5046760;28;20025;-78
2023/05/10 08:15:52;;;;;;;4.43;1.83;;;;;;;;;;5065942;28;20076;-77
2023/05/10 08:18:18;;;;;;;6.20;1.88;;;;;;;;;;5047586;28;20261;-77
2023/05/10 08:20:43;;;;;;;3.28;1.92;;;;;;;;;;5065551;28;20075;-78
2023/05/10 08:23:09;;;;;;;2.78;1.80;;;;;;;;;;5047894;28;20025;-78
2023/05/10 08:25:34;;;;;;;8.13;1.55;;;;;;;;;;5065209;28;20085;-78
2023/05/10 08:27:59;;;;;;;3.95;1.92;;;;;;;;;;5065740;28;20029;-78
2023/05/10 08:30:25;;;;;;;3.15;1.90;;;;;;;;;;5066134;28;20021;-78
2023/05/10 08:32:50;;;;;;;5.97;1.70;;;;;;;;;;5064952;28;20087;-78
2023/05/10 08:35:15;;;;;;;4.25;1.65;;;;;;;;;;5047561;28;20262;-79
2023/05/10 08:37:41;;;;;;;3.45;2.05;;;;;;;;;;5047430;28;20066;-77
2023/05/10 08:40:09;;;;;;;5.15;2.42;;;;;;;;;;5064934;28;20025;-78
2023/05/10 08:42:37;;;;;;;3.33;2.10;;;;;;;;;;5065710;28;20024;-78
2023/05/10 08:45:04;;;;;;;3.95;2.13;;;;;;;;;;5047670;28;20572;-78
2023/05/10 08:47:29;;;;;;;5.75;1.85;;;;;;;;;;5058360;28;20036;-77
2023/05/10 08:49:55;;;;;;;3.25;1.60;;;;;;;;;;5040751;28;20017;-78
2023/05/10 08:52:23;;;;;;;4.68;2.00;;;;;;;;;;5063062;28;20055;-78
2023/05/10 08:54:49;;;;;;;3.75;1.95;;;;;;;;;;5058139;28;20028;-78
2023/05/10 08:57:14;;;;;;;6.43;1.90;;;;;;;;;;5059881;28;20029;-78
2023/05/10 08:59:40;;;;;;;2.50;1.80;;;;;;;;;;5058668;28;20028;-77
2023/05/10 09:02:06;;;;;;;11.90;2.30;;;;;;;;;;5063163;28;20029;-78
2023/05/10 09:04:31;;;;;;;3.15;1.90;;;;;;;;;;5060373;28;20036;-77
2023/05/10 09:06:57;;;;;;;2.80;1.90;;;;;;;;;;5058172;28;20123;-77
2023/05/10 09:09:24;;;;;;;3.00;1.92;;;;;;;;;;5040489;28;20021;-79
2023/05/10 09:11:50;;;;;;;3.88;2.03;;;;;;;;;;5042180;28;20051;-79
2023/05/10 09:14:17;;;;;;;3.28;2.13;;;;;;;;;;5057741;28;20029;-77
2023/05/10 09:16:42;;;;;;;4.70;2.15;;;;;;;;;;5057489;28;20427;-77
2023/05/10 09:19:08;;;;;;;3.78;1.92;;;;;;;;;;5057249;28;20021;-77
2023/05/10 09:21:38;;;;;;;8.48;2.25;;;;;;;;;;5057492;28;20106;-77
2023/05/10 09:24:06;;;;;;;2.72;1.80;;;;;;;;;;5057491;28;20049;-78
2023/05/10 09:26:32;;;;;;;6.47;2.25;;;;;;;;;;5039586;28;20036;-78
2023/05/10 09:28:59;;;;;;;3.38;2.00;;;;;;;;;;5041025;28;20025;-77
2023/05/10 09:31:43;;;;;;;4.88;2.13;;;;;;;;;;5064330;28;20020;-78
2023/05/10 09:34:09;;;;;;;;;;;;;;;;;;5064375;28;20059;-78
2023/05/10 09:36:34;;;;;;;5.00;2.37;;;;;;;;;;5063521;28;19909;-78
2023/05/10 09:38:59;;;;;;;4.07;2.08;;;;;;;;;;5063523;28;20033;-78
2023/05/10 09:41:25;;;;;;;3.07;2.17;;;;;;;;;;5063474;28;20052;-78
2023/05/10 09:43:55;;;;;;;2.80;2.10;;;;;;;;;;5042204;28;20254;-78
2023/05/10 09:46:22;;;;;;;2.67;2.03;;;;;;;;;;5060217;28;20062;-79
2023/05/10 09:48:48;;;;;;;3.45;2.05;;;;;;;;;;5059002;28;20472;-78
2023/05/10 09:51:23;;;;;;;4.10;2.08;;;;;;;;;;5060863;28;20068;-79
2023/05/10 09:54:09;;;;;;;6.40;2.20;;;;;;;;;;5044419;28;20025;-78
2023/05/10 09:56:35;;;;;;;3.53;1.92;;;;;;;;;;5043768;28;20488;-77
2023/05/10 09:59:05;;;;;;;4.20;2.15;;;;;;;;;;5061818;28;20112;-78
2023/05/10 10:01:30;;;;;;;5.90;2.00;;;;;;;;;;5062624;28;20036;-78
2023/05/10 10:03:57;;;;;;;4.30;2.10;;;;;;;;;;5062008;28;20423;-77
2023/05/10 10:06:23;;;;;;;4.88;2.20;;;;;;;;;;5043831;28;20041;-77
2023/05/10 10:08:48;;;;;;;9.02;2.40;;;;;;;;;;5061842;28;20021;-78
2023/05/10 10:11:14;;;;;;;4.60;2.10;;;;;;;;;;5062295;28;20028;-78
2023/05/10 10:13:39;;;;;;;3.75;2.13;;;;;;;;;;5062372;28;20084;-78
2023/05/10 10:16:05;;;;;;;8.73;2.35;;;;;;;;;;5062825;28;20025;-78
2023/05/10 10:18:30;;;;;;;3.40;1.77;;;;;;;;;;5062360;28;20024;-78
2023/05/10 10:20:56;;;;;;;4.53;2.20;;;;;;;;;;5062933;28;20021;-77
2023/05/10 10:23:21;;;;;;;4.07;1.98;;;;;;;;;;5062842;28;20040;-77
2023/05/10 10:25:48;;;;;;;5.30;2.30;;;;;;;;;;5038737;28;20032;-77
2023/05/10 10:28:47;;;;;;;6.75;2.10;;;;;;;;;;5062647;28;20036;-78
2023/05/10 10:31:40;;;;;;;23.15;2.45;;;;;;;;;;5031012;28;20041;-78
2023/05/10 10:34:08;;;;;;;6.45;2.30;;;;;;;;;;5008862;28;20036;-77
2023/05/10 10:36:42;;;;;;;3.95;2.50;;;;;;;;;;5044642;28;20025;-79
2023/05/10 10:39:10;;;;;;;7.65;2.40;;;;;;;;;;5063154;28;20031;-79
2023/05/10 10:41:37;;;;;;;5.05;2.30;;;;;;;;;;5045687;28;20036;-79
2023/05/10 10:44:30;;;;;;;3.95;2.17;;;;;;;;;;5061789;28;20036;-79
2023/05/10 10:47:11;;;;;;;4.97;2.40;;;;;;;;;;5044377;28;20021;-79
2023/05/10 10:49:39;;;;;;;3.25;2.00;;;;;;;;;;5066669;28;20068;-78
2023/05/10 10:52:21;;;;;;;3.97;2.13;;;;;;;;;;5066855;28;20071;-79
2023/05/10 10:54:53;;;;;;;4.30;2.25;;;;;;;;;;5065483;28;20122;-77
2023/05/10 10:57:21;;;;;;;4.15;2.30;;;;;;;;;;5065101;28;20023;-78
2023/05/10 10:59:47;;;;;;;9.35;2.25;;;;;;;;;;5063578;28;20051;-77
2023/05/10 11:02:42;;;;;;;7.32;2.45;;;;;;;;;;5064906;28;20032;-78
2023/05/10 11:05:35;;;;;;;3.15;2.30;;;;;;;;;;5047859;28;20025;-78
2023/05/10 11:08:07;;;;;;;3.53;2.28;;;;;;;;;;5047964;28;20029;-77
2023/05/10 11:10:32;;;;;;;5.32;2.30;;;;;;;;;;5064012;28;20033;-78
2023/05/10 11:13:09;;;;;;;4.45;2.30;;;;;;;;;;5065469;28;20023;-79
2023/05/10 11:15:39;;;;;;;8.85;2.20;;;;;;;;;;5063663;28;20080;-78
2023/05/10 11:18:25;;;;;;;5.40;2.30;;;;;;;;;;5060990;28;20089;-78
2023/05/10 11:20:52;;;;;;;4.95;2.35;;;;;;;;;;5049122;28;20056;-78
2023/05/10 11:23:19;;;;;;;5.70;2.50;;;;;;;;;;5049164;28;20033;-78
2023/05/10 11:25:45;;;;;;;5.32;2.42;;;;;;;;;;5045830;28;20021;-78
2023/05/10 11:28:12;;;;;;;4.05;2.10;;;;;;;;;;5067528;28;20051;-78
2023/05/10 11:30:41;;;;;;;2.95;2.30;;;;;;;;;;5067280;28;20407;-78
2023/05/10 11:33:07;;;;;;;3.72;2.35;;;;;;;;;;5066699;28;20025;-78
2023/05/10 11:35:40;;;;;;;4.13;2.30;;;;;;;;;;5065396;28;20154;-77
2023/05/10 11:38:07;;;;;;;3.27;2.33;;;;;;;;;;5048465;28;20029;-78
2023/05/10 11:40:32;;;;;;;8.07;2.33;;;;;;;;;;5066766;28;20029;-78
2023/05/10 11:42:57;;;;;;;4.22;2.33;;;;;;;;;;5061052;28;20027;-78
2023/05/10 11:45:27;;;;;;;4.95;2.20;;;;;;;;;;5043345;28;20025;-78
2023/05/10 11:47:52;;;;;;;5.95;2.10;;;;;;;;;;5060944;28;20510;-78
2023/05/10 11:50:18;;;;;;;10.15;2.72;;;;;;;;;;5066796;28;20021;-78
2023/05/10 11:52:43;;;;;;;9.82;2.33;;;;;;;;;;5066531;28;20113;-78
2023/05/10 11:55:08;;;;;;;3.92;2.22;;;;;;;;;;5048302;28;20020;-78
2023/05/10 11:57:38;;;;;;;4.43;2.40;;;;;;;;;;5067145;28;20025;-78
2023/05/10 12:00:03;;;;;;;5.18;2.22;;;;;;;;;;5065577;28;20507;-79
2023/05/10 12:02:29;;;;;;;8.10;2.35;;;;;;;;;;5063256;28;20078;-78
2023/05/10 12:04:55;;;;;;;3.78;2.30;;;;;;;;;;5061511;28;20017;-77
2023/05/10 12:07:20;;;;;;;6.32;2.40;;;;;;;;;;5062053;28;20079;-77
2023/05/10 12:10:09;;;;;;;4.65;2.35;;;;;;;;;;5043154;28;20017;-77
2023/05/10 12:12:46;;;;;;;6.63;2.20;;;;;;;;;;5065931;28;20025;-78
2023/05/10 12:15:22;;;;;;;2.92;1.98;;;;;;;;;;5044724;28;20047;-79
2023/05/10 12:17:48;;;;;;;5.72;2.38;;;;;;;;;;5046211;28;20515;-77
2023/05/10 12:20:21;;;;;;;3.33;2.38;;;;;;;;;;5061818;28;20032;-77
2023/05/10 12:22:52;;;;;;;9.38;2.42;;;;;;;;;;5064905;28;20017;-79
2023/05/10 12:25:20;;;;;;;4.40;2.42;;;;;;;;;;5065310;28;20032;-79
2023/05/10 12:27:53;;;;;;;8.02;2.35;;;;;;;;;;5064960;28;20029;-78
2023/05/10 12:30:21;;;;;;;2.60;2.20;;;;;;;;;;5064846;28;20029;-80
2023/05/10 12:32:46;;;;;;;4.75;2.40;;;;;;;;;;5062245;28;20056;-80
2023/05/10 12:35:12;;;;;;;6.10;2.47;;;;;;;;;;5065400;28;20025;-78
2023/05/10 12:37:38;;;;;;;4.83;2.17;;;;;;;;;;5064381;28;20021;-78
2023/05/10 12:40:08;;;;;;;4.20;2.28;;;;;;;;;;5064198;28;20280;-80
2023/05/10 12:42:35;;;;;;;6.97;2.30;;;;;;;;;;5046402;28;20111;-79
2023/05/10 12:45:01;;;;;;;6.72;2.80;;;;;;;;;;5062498;28;20021;-78
2023/05/10 12:47:26;;;;;;;5.28;2.50;;;;;;;;;;5062432;28;20025;-77
2023/05/10 12:49:51;;;;;;;4.30;2.80;;;;;;;;;;5065299;28;20071;-77
2023/05/10 12:52:16;;;;;;;3.83;2.50;;;;;;;;;;5065418;28;20258;-78
2023/05/10 12:54:42;;;;;;;3.03;2.05;;;;;;;;;;5065349;28;20298;-79
2023/05/10 12:57:07;;;;;;;5.28;2.53;;;;;;;;;;5063894;28;20029;-79
2023/05/10 12:59:32;;;;;;;6.80;2.20;;;;;;;;;;5065748;28;20027;-78
2023/05/10 13:01:58;;;;;;;4.20;2.20;;;;;;;;;;5047268;28;20036;-78
2023/05/10 13:04:23;;;;;;;3.67;2.47;;;;;;;;;;5046748;28;20270;-78
2023/05/10 13:06:48;;;;;;;4.45;2.42;;;;;;;;;;5064689;28;20036;-79
2023/05/10 13:09:13;;;;;;;4.38;2.38;;;;;;;;;;5065418;28;20029;-78
2023/05/10 13:11:39;;;;;;;8.00;2.17;;;;;;;;;;5064221;28;20054;-78
2023/05/10 13:14:04;;;;;;;4.78;2.10;;;;;;;;;;5044482;28;20265;-78
2023/05/10 13:16:30;;;;;;;5.18;2.00;;;;;;;;;;5060278;28;20021;-77
2023/05/10 13:18:55;;;;;;;3.97;1.90;;;;;;;;;;5063679;28;20496;-79
2023/05/10 13:21:21;;;;;;;4.37;2.50;;;;;;;;;;5063307;28;20052;-79
2023/05/10 13:23:46;;;;;;;4.80;2.20;;;;;;;;;;5039766;28;20264;-78
2023/05/10 13:26:12;;;;;;;6.40;2.38;;;;;;;;;;5058806;28;20047;-77
2023/05/10 13:28:38;;;;;;;3.05;1.95;;;;;;;;;;5060081;28;20029;-79
2023/05/10 13:31:04;;;;;;;5.43;2.38;;;;;;;;;;5061572;28;20021;-78
2023/05/10 13:33:30;;;;;;;4.95;2.45;;;;;;;;;;5062336;28;20510;-78
2023/05/10 13:35:55;;;;;;;3.50;2.30;;;;;;;;;;5064047;28;20028;-78
2023/05/10 13:38:20;;;;;;;4.37;2.00;;;;;;;;;;5063660;28;20507;-79
2023/05/10 13:40:45;;;;;;;3.37;2.03;;;;;;;;;;5064280;28;20284;-79
2023/05/10 13:43:11;;;;;;;8.20;2.10;;;;;;;;;;5064260;28;20699;-77
2023/05/10 13:45:36;;;;;;;5.38;2.50;;;;;;;;;;5061977;28;20051;-78
2023/05/10 13:48:01;;;;;;;3.37;2.00;;;;;;;;;;5061676;28;20103;-78
2023/05/10 13:50:26;;;;;;;3.10;2.07;;;;;;;;;;5062177;28;20249;-78
2023/05/10 13:52:52;;;;;;;2.33;1.83;;;;;;;;;;5045906;28;20262;-78
2023/05/10 13:55:17;;;;;;;6.27;2.13;;;;;;;;;;5044836;28;20398;-78
2023/05/10 13:57:43;;;;;;;3.23;2.20;;;;;;;;;;5064576;28;20332;-78
2023/05/10 14:00:09;;;;;;;4.85;2.17;;;;;;;;;;5047250;28;20282;-79
2023/05/10 14:02:34;;;;;;;2.60;2.10;;;;;;;;;;5061403;28;20040;-77
2023/05/10 14:05:00;;;;;;;2.90;2.03;;;;;;;;;;5061022;28;20033;-78
2023/05/10 14:07:25;;;;;;;3.03;1.98;;;;;;;;;;5043109;28;20277;-78
2023/05/10 14:09:50;;;;;;;5.40;2.28;;;;;;;;;;5060612;28;20087;-78
2023/05/10 14:12:16;;;;;;;5.80;2.07;;;;;;;;;;5062565;28;20536;-79
2023/05/10 14:14:42;;;;;;;8.48;2.50;;;;;;;;;;5046753;28;20266;-78
2023/05/10 14:17:07;;;;;;;3.70;2.00;;;;;;;;;;5061153;28;20518;-78
2023/05/10 14:19:33;;;;;;;6.13;2.60;;;;;;;;;;5061132;28;20697;-78
2023/05/10 14:21:59;;;;;;;9.05;2.30;;;;;;;;;;5045998;28;20500;-78
2023/05/10 14:24:24;;;;;;;5.25;2.15;;;;;;;;;;5049346;28;20043;-77
2023/05/10 14:26:53;;;;;;;6.10;2.10;;;;;;;;;;5050686;28;20025;-78
2023/05/10 14:29:18;;;;;;;4.05;2.17;;;;;;;;;;5050708;28;20282;-79
2023/05/10 14:31:43;;;;;;;4.73;2.10;;;;;;;;;;5049996;28;20021;-77
2023/05/10 14:34:09;;;;;;;5.03;2.00;;;;;;;;;;5067308;28;20258;-78
2023/05/10 14:36:34;;;;;;;5.53;2.03;;;;;;;;;;5050533;28;20272;-79
2023/05/10 14:38:59;;;;;;;6.03;2.43;;;;;;;;;;5070978;28;20076;-79
2023/05/10 14:41:24;;;;;;;3.67;2.00;;;;;;;;;;5053202;28;20254;-78
2023/05/10 14:43:49;;;;;;;4.33;2.00;;;;;;;;;;5070377;28;20258;-79